createdAt,value
2019-03-26T00:01:17.952Z,55.69
2019-03-26T00:03:46.662Z,55.89
2019-03-26T00:06:15.330Z,55.90
2019-03-26T00:08:43.992Z,55.72
2019-03-26T00:11:12.557Z,55.77
2019-03-26T00:13:41.228Z,56.59
2019-03-26T00:16:09.870Z,56.78
2019-03-26T00:18:38.439Z,56.85
2019-03-26T00:21:07.050Z,56.95
2019-03-26T00:23:35.619Z,56.64
2019-03-26T00:26:04.257Z,56.74
2019-03-26T00:28:33.021Z,56.98
2019-03-26T00:31:01.660Z,57.06
2019-03-26T00:33:36.315Z,56.96
2019-03-26T00:36:00.687Z,56.80
2019-03-26T00:38:29.319Z,56.66
2019-03-26T00:40:57.973Z,56.94
2019-03-26T00:43:26.586Z,56.99
2019-03-26T00:45:55.151Z,57.00
2019-03-26T00:48:23.716Z,57.40
2019-03-26T00:50:52.544Z,57.38
2019-03-26T00:53:21.146Z,57.47
2019-03-26T00:55:49.640Z,57.74
2019-03-26T00:58:18.240Z,57.79
2019-03-26T01:00:46.949Z,57.72
2019-03-26T01:03:15.522Z,57.97
2019-03-26T01:05:44.138Z,57.56
2019-03-26T01:08:12.773Z,57.48
2019-03-26T01:10:41.407Z,56.93
2019-03-26T01:13:10.193Z,56.55
2019-03-26T01:15:38.926Z,56.34
2019-03-26T01:18:07.549Z,56.34
2019-03-26T01:20:36.514Z,56.14
2019-03-26T01:23:05.147Z,56.52
2019-03-26T01:25:33.787Z,56.49
2019-03-26T01:28:02.494Z,56.61
2019-03-26T01:30:31.064Z,56.26
2019-03-26T01:32:59.660Z,56.13
2019-03-26T01:35:28.301Z,56.15
2019-03-26T01:37:56.871Z,56.05
2019-03-26T01:40:26.722Z,56.16
2019-03-26T01:42:55.359Z,55.97
2019-03-26T01:45:23.995Z,56.09
2019-03-26T01:47:52.564Z,56.19
2019-03-26T01:50:21.203Z,56.30
2019-03-26T01:52:49.740Z,56.31
2019-03-26T01:55:18.300Z,56.39
2019-03-26T01:57:48.014Z,56.46
2019-03-26T02:00:16.855Z,56.83
2019-03-26T02:02:45.321Z,57.07
2019-03-26T02:05:13.991Z,57.16
2019-03-26T02:07:42.667Z,57.31
2019-03-26T02:10:11.309Z,57.48
2019-03-26T02:12:39.798Z,57.83
2019-03-26T02:15:10.307Z,58.08
2019-03-26T02:17:38.939Z,58.41
2019-03-26T02:20:07.583Z,58.58
2019-03-26T02:22:36.426Z,58.71
2019-03-26T02:25:05.466Z,59.05
2019-03-26T02:27:34.097Z,59.16
2019-03-26T02:30:02.744Z,59.38
2019-03-26T02:32:31.376Z,59.74
2019-03-26T02:35:16.366Z,60.00
2019-03-26T02:37:30.296Z,60.13
2019-03-26T02:39:58.760Z,60.15
2019-03-26T02:42:27.402Z,60.30
2019-03-26T02:44:56.256Z,60.95
2019-03-26T02:47:24.736Z,61.13
2019-03-26T02:49:53.230Z,61.05
2019-03-26T02:52:21.889Z,61.43
2019-03-26T02:54:50.540Z,61.80
2019-03-26T02:57:19.036Z,62.07
2019-03-26T02:59:47.833Z,62.18
2019-03-26T03:02:16.469Z,62.34
2019-03-26T03:04:45.097Z,62.90
2019-03-26T03:07:13.888Z,63.23
2019-03-26T03:09:42.526Z,63.12
2019-03-26T03:12:11.156Z,63.55
2019-03-26T03:14:39.802Z,64.12
2019-03-26T03:17:08.297Z,63.84
2019-03-26T03:19:36.866Z,64.31
2019-03-26T03:22:05.462Z,64.53
2019-03-26T03:24:34.164Z,64.59
2019-03-26T03:27:02.833Z,64.65
2019-03-26T03:29:31.339Z,64.71
2019-03-26T03:31:59.962Z,64.93
2019-03-26T03:34:28.641Z,65.14
2019-03-26T03:36:57.213Z,65.18
2019-03-26T03:39:25.698Z,65.08
2019-03-26T03:41:54.704Z,65.50
2019-03-26T03:44:23.431Z,65.77
2019-03-26T03:46:54.103Z,65.89
2019-03-26T03:49:25.543Z,65.96
2019-03-26T03:51:56.690Z,65.93
2019-03-26T03:54:25.722Z,66.09
2019-03-26T03:56:55.826Z,66.12
2019-03-26T03:59:26.496Z,66.17
2019-03-26T04:01:54.985Z,66.53
2019-03-26T04:04:23.790Z,66.80
2019-03-26T04:06:52.430Z,66.89
2019-03-26T04:09:21.060Z,67.02
2019-03-26T04:11:49.595Z,67.21
2019-03-26T04:14:18.097Z,67.46
2019-03-26T04:16:46.726Z,68.04
2019-03-26T04:19:15.597Z,67.67
2019-03-26T04:21:44.085Z,67.95
2019-03-26T04:24:12.583Z,68.33
2019-03-26T04:26:42.283Z,68.36
2019-03-26T04:29:10.780Z,68.33
2019-03-26T04:31:39.413Z,68.59
2019-03-26T04:34:08.328Z,68.76
2019-03-26T04:36:36.896Z,68.55
2019-03-26T04:39:07.439Z,68.23
2019-03-26T04:41:36.405Z,68.01
2019-03-26T04:44:05.032Z,67.48
2019-03-26T04:46:33.524Z,67.32
2019-03-26T04:49:02.053Z,66.67
2019-03-26T04:51:30.701Z,66.31
2019-03-26T04:53:59.333Z,66.29
2019-03-26T04:56:27.863Z,67.40
2019-03-26T04:58:56.362Z,67.86
2019-03-26T05:01:24.986Z,67.79
2019-03-26T05:03:53.644Z,68.09
2019-03-26T05:06:22.143Z,68.34
2019-03-26T05:08:50.702Z,68.49
2019-03-26T05:11:19.309Z,68.39
2019-03-26T05:13:47.807Z,68.78
2019-03-26T05:16:16.442Z,69.08
2019-03-26T05:18:45.114Z,69.09
2019-03-26T05:21:13.685Z,69.26
2019-03-26T05:23:42.235Z,69.24
2019-03-26T05:26:10.910Z,69.26
2019-03-26T05:28:39.553Z,69.25
2019-03-26T05:31:08.065Z,69.21
2019-03-26T05:33:36.607Z,69.27
2019-03-26T05:36:05.239Z,69.42
2019-03-26T05:38:33.888Z,68.96
2019-03-26T05:41:02.415Z,68.51
2019-03-26T05:43:30.917Z,68.24
2019-03-26T05:45:59.554Z,68.41
2019-03-26T05:48:29.414Z,67.96
2019-03-26T05:50:58.129Z,67.58
2019-03-26T05:53:26.807Z,67.15
2019-03-26T05:55:55.336Z,66.13
2019-03-26T05:58:23.830Z,65.71
2019-03-26T06:00:52.493Z,65.33
2019-03-26T06:03:21.319Z,64.34
2019-03-26T06:05:49.888Z,63.35
2019-03-26T06:08:18.394Z,62.54
2019-03-26T06:10:47.071Z,61.80
2019-03-26T06:13:15.715Z,61.08
2019-03-26T06:15:44.215Z,60.11
2019-03-26T06:18:12.757Z,60.26
2019-03-26T06:20:41.381Z,59.29
2019-03-26T06:23:10.015Z,58.65
2019-03-26T06:25:38.882Z,57.57
2019-03-26T06:28:07.514Z,56.15
2019-03-26T06:30:36.012Z,56.42
2019-03-26T06:33:04.938Z,55.11
2019-03-26T06:35:33.589Z,54.44
2019-03-26T06:38:02.264Z,53.73
2019-03-26T06:40:30.842Z,54.72
2019-03-26T06:42:59.400Z,53.74
2019-03-26T06:45:28.031Z,54.26
2019-03-26T06:47:56.708Z,52.98
2019-03-26T06:50:25.202Z,52.60
2019-03-26T06:52:53.762Z,51.69
2019-03-26T06:55:22.437Z,50.77
2019-03-26T06:57:51.073Z,50.66
2019-03-26T07:00:22.619Z,51.05
2019-03-26T07:02:51.283Z,51.78
2019-03-26T07:05:19.922Z,52.30
2019-03-26T07:07:48.424Z,51.51
2019-03-26T07:10:19.993Z,51.69
2019-03-26T07:12:48.634Z,51.67
2019-03-26T07:15:17.323Z,51.51
2019-03-26T07:17:45.902Z,51.41
2019-03-26T07:20:14.632Z,51.23
2019-03-26T07:22:43.272Z,50.11
2019-03-26T07:25:12.197Z,49.06
2019-03-26T07:27:40.834Z,48.68
2019-03-26T07:30:11.683Z,49.78
2019-03-26T07:32:40.321Z,49.68
2019-03-26T07:35:09.464Z,47.64
2019-03-26T07:37:44.946Z,48.77
2019-03-26T07:40:08.862Z,49.30
2019-03-26T07:42:37.520Z,48.76
2019-03-26T07:45:08.014Z,47.88
2019-03-26T07:47:36.615Z,47.41
2019-03-26T07:50:07.351Z,48.33
2019-03-26T07:52:35.939Z,48.15
2019-03-26T07:55:06.294Z,48.80
2019-03-26T07:57:34.948Z,48.97
2019-03-26T08:00:05.878Z,48.19
2019-03-26T08:02:34.989Z,47.46
2019-03-26T08:05:04.527Z,46.90
2019-03-26T08:07:33.146Z,47.14
2019-03-26T08:10:01.843Z,47.75
2019-03-26T08:12:32.774Z,47.29
2019-03-26T08:15:00.742Z,46.65
2019-03-26T08:17:29.377Z,45.40
2019-03-26T08:19:57.866Z,45.20
2019-03-26T08:22:26.365Z,45.77
2019-03-26T08:24:55.029Z,45.54
2019-03-26T08:27:23.679Z,45.38
2019-03-26T08:29:52.176Z,44.84
2019-03-26T08:32:21.112Z,44.50
2019-03-26T08:34:49.741Z,44.81
2019-03-26T08:37:18.379Z,44.21
2019-03-26T08:39:46.921Z,44.65
2019-03-26T08:42:15.407Z,44.89
2019-03-26T08:44:44.047Z,45.38
2019-03-26T08:47:12.725Z,46.83
2019-03-26T08:49:41.231Z,47.72
2019-03-26T08:52:09.728Z,48.80
2019-03-26T08:54:38.657Z,48.43
2019-03-26T08:57:07.291Z,47.12
2019-03-26T08:59:35.789Z,46.50
2019-03-26T09:02:04.633Z,46.33
2019-03-26T09:04:33.271Z,46.49
2019-03-26T09:07:01.767Z,46.68
2019-03-26T09:09:30.564Z,46.29
2019-03-26T09:11:59.207Z,45.67
2019-03-26T09:14:27.704Z,45.35
2019-03-26T09:16:56.329Z,44.28
2019-03-26T09:19:24.964Z,44.74
2019-03-26T09:21:53.607Z,44.47
2019-03-26T09:24:22.153Z,43.53
2019-03-26T09:26:50.725Z,43.79
2019-03-26T09:29:19.361Z,44.02
2019-03-26T09:31:48.959Z,44.25
2019-03-26T09:34:17.451Z,44.65
2019-03-26T09:36:45.950Z,44.60
2019-03-26T09:39:15.091Z,43.59
2019-03-26T09:41:43.723Z,44.01
2019-03-26T09:44:12.235Z,44.01
2019-03-26T09:46:40.906Z,44.70
2019-03-26T09:49:09.409Z,46.61
2019-03-26T09:51:37.894Z,46.83
2019-03-26T09:54:06.568Z,45.61
2019-03-26T09:56:35.293Z,45.53
2019-03-26T09:59:03.861Z,45.12
2019-03-26T10:01:32.440Z,44.61
2019-03-26T10:04:01.072Z,45.03
2019-03-26T10:06:29.696Z,45.61
2019-03-26T10:08:58.228Z,46.57
2019-03-26T10:11:26.724Z,45.82
2019-03-26T10:13:55.421Z,45.45
2019-03-26T10:16:24.095Z,46.03
2019-03-26T10:18:52.597Z,45.41
2019-03-26T10:21:21.197Z,44.87
2019-03-26T10:23:49.847Z,44.79
2019-03-26T10:26:18.350Z,44.96
2019-03-26T10:28:46.914Z,45.16
2019-03-26T10:31:15.592Z,44.67
2019-03-26T10:33:44.233Z,43.97
2019-03-26T10:36:12.804Z,45.30
2019-03-26T10:38:42.422Z,44.89
2019-03-26T10:41:11.094Z,45.49
2019-03-26T10:43:39.593Z,46.00
2019-03-26T10:46:09.301Z,45.54
2019-03-26T10:48:37.925Z,45.39
2019-03-26T10:51:06.559Z,45.22
2019-03-26T10:53:35.097Z,45.12
2019-03-26T10:56:03.612Z,44.88
2019-03-26T10:58:32.247Z,44.53
2019-03-26T11:01:00.962Z,44.27
2019-03-26T11:03:29.429Z,42.96
2019-03-26T11:05:58.048Z,42.96
2019-03-26T11:08:26.843Z,42.70
2019-03-26T11:10:55.404Z,43.22
2019-03-26T11:13:24.054Z,43.30
2019-03-26T11:15:52.810Z,43.00
2019-03-26T11:18:21.307Z,42.94
2019-03-26T11:21:01.828Z,43.75
2019-03-26T11:23:20.299Z,44.06
2019-03-26T11:25:48.934Z,43.83
2019-03-26T11:28:17.433Z,44.25
2019-03-26T11:30:45.976Z,44.60
2019-03-26T11:33:14.603Z,45.56
2019-03-26T11:35:43.299Z,46.79
2019-03-26T11:38:12.668Z,46.77
2019-03-26T11:40:42.861Z,47.28
2019-03-26T11:43:16.911Z,47.67
2019-03-26T11:45:45.681Z,48.02
2019-03-26T11:48:14.573Z,47.63
2019-03-26T11:50:43.418Z,47.58
2019-03-26T11:53:12.629Z,47.46
2019-03-26T11:55:41.136Z,47.10
2019-03-26T11:58:09.800Z,46.71
2019-03-26T12:00:39.246Z,46.86
2019-03-26T12:03:07.951Z,46.88
2019-03-26T12:05:36.526Z,48.53
2019-03-26T12:08:05.206Z,48.74
2019-03-26T12:10:33.869Z,48.75
2019-03-26T12:13:02.447Z,48.28
2019-03-26T12:15:30.981Z,48.70
2019-03-26T12:17:59.617Z,49.11
2019-03-26T12:20:28.256Z,50.48
2019-03-26T12:22:56.823Z,52.11
2019-03-26T12:25:25.466Z,54.09
2019-03-26T12:27:53.970Z,56.73
2019-03-26T12:30:36.468Z,58.42
2019-03-26T12:33:05.898Z,59.90
2019-03-26T12:35:34.839Z,59.59
2019-03-26T12:38:06.432Z,59.42
2019-03-26T12:40:34.935Z,61.25
2019-03-26T12:43:03.578Z,63.40
2019-03-26T12:45:32.510Z,62.33
2019-03-26T12:48:01.012Z,61.80
2019-03-26T12:50:32.010Z,62.00
2019-03-26T12:52:59.992Z,63.61
2019-03-26T12:55:28.686Z,63.20
2019-03-26T12:57:57.184Z,64.50
2019-03-26T13:00:33.446Z,65.39
2019-03-26T13:03:02.406Z,64.01
2019-03-26T13:05:30.914Z,63.57
2019-03-26T13:07:59.671Z,63.80
2019-03-26T13:10:28.317Z,64.03
2019-03-26T13:12:56.941Z,63.44
2019-03-26T13:15:25.773Z,62.91
2019-03-26T13:17:54.421Z,62.10
2019-03-26T13:20:23.059Z,62.43
2019-03-26T13:22:51.682Z,62.70
2019-03-26T13:25:20.270Z,61.84
2019-03-26T13:27:48.903Z,60.83
2019-03-26T13:30:18.496Z,60.53
2019-03-26T13:32:46.994Z,60.06
2019-03-26T13:35:16.038Z,59.81
2019-03-26T13:37:44.728Z,59.45
2019-03-26T13:40:26.633Z,58.53
2019-03-26T13:42:44.255Z,57.79
2019-03-26T13:45:13.332Z,57.76
2019-03-26T13:47:41.996Z,56.82
2019-03-26T13:50:11.125Z,56.35
2019-03-26T13:52:39.952Z,55.83
2019-03-26T13:55:11.902Z,55.44
2019-03-26T13:57:40.549Z,56.43
2019-03-26T14:00:10.609Z,54.86
2019-03-26T14:02:39.172Z,56.27
2019-03-26T14:05:24.886Z,56.41
2019-03-26T14:07:53.532Z,55.12
2019-03-26T14:10:24.909Z,52.91
2019-03-26T14:12:53.736Z,48.07
2019-03-26T14:15:22.369Z,46.46
2019-03-26T14:17:51.009Z,54.78
2019-03-26T14:20:20.215Z,57.34
2019-03-26T14:22:48.772Z,57.04
2019-03-26T14:25:17.516Z,54.68
2019-03-26T14:27:46.146Z,51.89
2019-03-26T14:30:15.358Z,51.17
2019-03-26T14:32:43.996Z,50.68
2019-03-26T14:35:13.068Z,50.86
2019-03-26T14:37:51.067Z,49.91
2019-03-26T14:40:12.207Z,49.47
2019-03-26T14:42:40.895Z,48.75
2019-03-26T14:45:09.746Z,49.20
2019-03-26T14:47:38.321Z,50.14
2019-03-26T14:50:08.311Z,50.96
2019-03-26T14:52:36.951Z,50.98
2019-03-26T14:55:07.201Z,51.51
2019-03-26T14:57:35.821Z,60.06
2019-03-26T15:00:06.321Z,64.51
2019-03-26T15:02:34.961Z,66.01
2019-03-26T15:05:04.156Z,66.62
2019-03-26T15:07:32.796Z,66.21
2019-03-26T15:10:01.418Z,66.21
2019-03-26T15:12:30.126Z,65.39
2019-03-26T15:14:58.669Z,65.24
2019-03-26T15:17:27.305Z,64.33
2019-03-26T15:19:55.990Z,64.63
2019-03-26T15:22:24.567Z,64.89
2019-03-26T15:24:53.243Z,65.52
2019-03-26T15:27:21.907Z,65.45
2019-03-26T15:29:50.542Z,64.85
2019-03-26T15:32:19.055Z,65.31
2019-03-26T15:34:47.674Z,64.90
2019-03-26T15:37:16.311Z,64.32
2019-03-26T15:39:45.024Z,63.91
2019-03-26T15:42:13.584Z,66.18
2019-03-26T15:44:42.214Z,67.29
2019-03-26T15:47:10.851Z,66.29
2019-03-26T15:49:39.483Z,65.50
2019-03-26T15:52:08.042Z,65.73
2019-03-26T15:54:36.694Z,65.48
2019-03-26T15:57:05.389Z,66.63
2019-03-26T15:59:33.887Z,66.49
2019-03-26T16:02:02.578Z,65.94
2019-03-26T16:04:31.253Z,65.52
2019-03-26T16:06:59.758Z,65.42
2019-03-26T16:09:28.255Z,64.73
2019-03-26T16:11:56.947Z,65.09
2019-03-26T16:14:28.148Z,65.08
2019-03-26T16:16:55.919Z,64.77
2019-03-26T16:19:32.079Z,65.05
2019-03-26T16:21:54.838Z,64.22
2019-03-26T16:24:23.417Z,64.22
2019-03-26T16:26:52.121Z,63.36
2019-03-26T16:29:20.754Z,59.34
2019-03-26T16:31:49.265Z,55.18
2019-03-26T16:34:17.810Z,55.93
2019-03-26T16:36:58.954Z,50.20
2019-03-26T16:39:16.838Z,49.17
2019-03-26T16:41:49.418Z,47.13
2019-03-26T16:44:15.648Z,46.59
2019-03-26T16:46:44.323Z,46.33
2019-03-26T16:49:12.974Z,46.44
2019-03-26T16:51:41.531Z,46.53
2019-03-26T16:54:10.361Z,46.45
2019-03-26T16:56:39.136Z,46.95
2019-03-26T16:59:07.716Z,47.31
2019-03-26T17:01:36.248Z,47.59
2019-03-26T17:04:04.893Z,47.63
2019-03-26T17:06:33.414Z,48.12
2019-03-26T17:09:02.045Z,47.58
2019-03-26T17:11:30.682Z,47.40
2019-03-26T17:13:59.351Z,47.53
2019-03-26T17:16:28.064Z,47.54
2019-03-26T17:18:56.582Z,46.50
2019-03-26T17:21:25.380Z,45.93
2019-03-26T17:23:54.116Z,46.16
2019-03-26T17:26:22.870Z,46.44
2019-03-26T17:28:51.541Z,45.93
2019-03-26T17:31:20.330Z,45.97
2019-03-26T17:33:49.121Z,45.48
2019-03-26T17:36:17.815Z,45.29
2019-03-26T17:38:46.604Z,45.54
2019-03-26T17:41:15.319Z,45.36
2019-03-26T17:43:43.924Z,45.71
2019-03-26T17:46:12.749Z,45.97
2019-03-26T17:48:41.401Z,46.20
2019-03-26T17:51:10.337Z,46.33
2019-03-26T17:53:38.905Z,46.37
2019-03-26T17:56:07.537Z,46.33
2019-03-26T17:58:36.576Z,46.62
2019-03-26T18:01:05.555Z,46.57
2019-03-26T18:03:34.110Z,46.39
2019-03-26T18:06:02.944Z,46.75
2019-03-26T18:08:31.698Z,46.90
2019-03-26T18:11:00.314Z,47.08
2019-03-26T18:13:28.882Z,47.12
2019-03-26T18:15:57.530Z,46.97
2019-03-26T18:18:26.265Z,47.25
2019-03-26T18:20:54.852Z,47.44
2019-03-26T18:23:23.517Z,47.43
2019-03-26T18:25:52.013Z,47.75
2019-03-26T18:28:20.908Z,47.77
2019-03-26T18:30:49.575Z,47.81
2019-03-26T18:33:18.247Z,47.82
2019-03-26T18:35:46.948Z,47.89
2019-03-26T18:38:15.470Z,47.85
2019-03-26T18:40:44.112Z,47.86
2019-03-26T18:43:12.781Z,48.24
2019-03-26T18:45:41.310Z,48.16
2019-03-26T18:48:09.950Z,48.53
2019-03-26T18:50:38.668Z,48.27
2019-03-26T18:53:07.337Z,48.38
2019-03-26T18:55:35.827Z,48.24
2019-03-26T18:58:04.640Z,48.44
2019-03-26T19:00:38.094Z,48.50
2019-03-26T19:03:07.237Z,48.53
2019-03-26T19:05:35.771Z,48.50
2019-03-26T19:08:05.009Z,48.65
2019-03-26T19:10:35.010Z,48.36
2019-03-26T19:13:03.805Z,48.58
2019-03-26T19:15:32.489Z,48.74
2019-03-26T19:18:01.128Z,48.99
2019-03-26T19:20:29.857Z,49.07
2019-03-26T19:22:58.653Z,49.22
2019-03-26T19:25:27.434Z,49.39
2019-03-26T19:27:56.308Z,49.34
2019-03-26T19:30:24.943Z,49.26
2019-03-26T19:32:53.695Z,49.25
2019-03-26T19:35:22.398Z,49.07
2019-03-26T19:37:50.963Z,49.12
2019-03-26T19:40:19.595Z,48.94
2019-03-26T19:42:48.253Z,48.81
2019-03-26T19:45:17.229Z,48.69
2019-03-26T19:47:46.018Z,48.26
2019-03-26T19:50:14.860Z,48.62
2019-03-26T19:52:43.359Z,48.50
2019-03-26T19:55:12.372Z,48.19
2019-03-26T19:57:41.069Z,47.90
2019-03-26T20:00:15.076Z,47.85
2019-03-26T20:02:43.763Z,47.95
2019-03-26T20:05:12.496Z,47.02
2019-03-26T20:07:41.255Z,46.83
2019-03-26T20:10:11.065Z,47.16
2019-03-26T20:12:39.615Z,47.21
2019-03-26T20:15:11.213Z,47.54
2019-03-26T20:17:39.883Z,47.65
2019-03-26T20:20:10.618Z,47.46
2019-03-26T20:22:39.386Z,47.51
2019-03-26T20:25:09.177Z,47.86
2019-03-26T20:27:37.724Z,47.74
2019-03-26T20:30:07.996Z,47.64
2019-03-26T20:32:36.888Z,48.14
2019-03-26T20:35:08.552Z,48.46
2019-03-26T20:37:37.337Z,48.84
2019-03-26T20:40:10.802Z,48.76
2019-03-26T20:42:39.448Z,48.51
2019-03-26T20:45:14.354Z,48.69
2019-03-26T20:47:42.417Z,48.58
2019-03-26T20:50:11.641Z,48.50
2019-03-26T20:52:40.406Z,48.31
2019-03-26T20:55:11.627Z,48.52
2019-03-26T20:57:40.255Z,48.37
2019-03-26T21:00:11.888Z,48.00
2019-03-26T21:02:40.482Z,47.98
2019-03-26T21:05:09.508Z,47.99
2019-03-26T21:07:38.634Z,47.69
2019-03-26T21:10:07.993Z,47.52
2019-03-26T21:12:36.713Z,47.40
2019-03-26T21:15:08.507Z,47.14
2019-03-26T21:17:37.553Z,46.85
2019-03-26T21:20:08.645Z,47.16
2019-03-26T21:22:37.140Z,46.99
2019-03-26T21:25:06.207Z,46.90
2019-03-26T21:27:34.833Z,46.87
2019-03-26T21:30:11.220Z,46.85
2019-03-26T21:32:35.124Z,46.88
2019-03-26T21:35:04.962Z,46.85
2019-03-26T21:37:33.594Z,46.80
2019-03-26T21:40:02.255Z,46.52
2019-03-26T21:42:30.968Z,46.59
2019-03-26T21:44:59.458Z,46.56
2019-03-26T21:47:28.056Z,46.55
2019-03-26T21:49:56.683Z,46.64
2019-03-26T21:52:25.383Z,46.49
2019-03-26T21:54:53.912Z,46.58
2019-03-26T21:57:22.408Z,46.67
2019-03-26T21:59:51.035Z,46.67
2019-03-26T22:02:19.696Z,46.61
2019-03-26T22:04:48.188Z,46.73
2019-03-26T22:07:16.753Z,46.67
2019-03-26T22:09:45.382Z,47.00
2019-03-26T22:12:13.950Z,47.10
2019-03-26T22:14:42.696Z,47.14
2019-03-26T22:17:11.256Z,47.30
2019-03-26T22:19:39.879Z,47.30
2019-03-26T22:22:08.404Z,47.44
2019-03-26T22:24:37.036Z,47.38
2019-03-26T22:27:05.662Z,47.17
2019-03-26T22:29:34.201Z,47.57
2019-03-26T22:32:02.692Z,47.68
2019-03-26T22:34:31.320Z,47.61
2019-03-26T22:36:59.986Z,47.58
2019-03-26T22:39:28.543Z,47.94
2019-03-26T22:41:57.030Z,48.09
2019-03-26T22:44:31.182Z,47.86
2019-03-26T22:46:56.064Z,48.09
2019-03-26T22:49:24.548Z,48.07
2019-03-26T22:51:53.075Z,48.11
2019-03-26T22:54:21.722Z,48.04
2019-03-26T22:56:50.456Z,47.83
2019-03-26T22:59:18.943Z,48.07
2019-03-26T23:01:47.581Z,48.09
2019-03-26T23:04:16.172Z,48.29
2019-03-26T23:06:44.655Z,48.54
2019-03-26T23:09:13.287Z,48.80
2019-03-26T23:11:41.916Z,48.96
2019-03-26T23:14:10.475Z,49.10
2019-03-26T23:16:39.134Z,49.16
2019-03-26T23:19:07.766Z,48.99
2019-03-26T23:21:36.395Z,49.26
2019-03-26T23:24:05.070Z,49.42
2019-03-26T23:26:33.713Z,49.46
2019-03-26T23:29:02.341Z,49.67
2019-03-26T23:31:31.005Z,49.80
2019-03-26T23:33:59.561Z,49.93
2019-03-26T23:36:28.052Z,49.88
2019-03-26T23:38:56.721Z,50.22
2019-03-26T23:41:25.211Z,50.10
2019-03-26T23:43:53.839Z,50.31
2019-03-26T23:46:22.717Z,50.16
2019-03-26T23:48:51.285Z,50.20
2019-03-26T23:51:19.843Z,50.21
2019-03-26T23:53:48.503Z,50.40
2019-03-26T23:56:17.128Z,50.42
2019-03-26T23:58:45.617Z,50.26
